Time;durP1;ratioP1;P1;durP2;ratioP2;P2;SDS_P1;SDS_P2;PMS_P1;PMS_P2;Temp;Humidity;BMP_temperature;BMP_pressure;BME280_temperature;BME280_humidity;BME280_pressure;Samples;Min_cycle;Max_cycle;Signal;HPM_P1;HPM_P2
2021/10/21 00:01:39;;;;;;;5.28;3.10;;;;;;;12.47;100.00;98842.53;5015108;28;20025;-76
2021/10/21 00:04:04;;;;;;;7.15;2.00;;;;;;;12.39;100.00;98812.84;5015165;28;20030;-75
2021/10/21 00:06:29;;;;;;;5.97;2.28;;;;;;;12.26;100.00;98775.34;5014483;28;20430;-76
2021/10/21 00:08:55;;;;;;;6.10;2.15;;;;;;;12.14;100.00;98739.59;5015048;28;20041;-75
2021/10/21 00:11:20;;;;;;;9.05;2.63;;;;;;;12.12;100.00;98717.66;5014427;28;20022;-76
2021/10/21 00:13:45;;;;;;;5.20;2.25;;;;;;;12.11;100.00;98707.16;5015438;28;20104;-76
2021/10/21 00:16:11;;;;;;;6.65;2.10;;;;;;;12.11;100.00;98701.88;5015426;28;20026;-76
2021/10/21 00:18:37;;;;;;;5.45;2.30;;;;;;;12.11;100.00;98725.59;5013654;28;20120;-76
2021/10/21 00:21:02;;;;;;;37.60;3.30;;;;;;;12.08;100.00;98726.53;5013610;28;20084;-75
2021/10/21 00:23:27;;;;;;;4.90;1.80;;;;;;;12.02;100.00;98742.50;5013332;28;20037;-74
2021/10/21 00:25:53;;;;;;;2.90;1.17;;;;;;;11.94;100.00;98725.97;5014358;28;20066;-76
2021/10/21 00:28:18;;;;;;;6.75;1.20;;;;;;;11.86;100.00;98725.28;5014606;28;20026;-75
2021/10/21 00:30:44;;;;;;;2.20;0.90;;;;;;;11.78;100.00;98736.84;5015027;28;20064;-75
2021/10/21 00:33:09;;;;;;;5.43;1.23;;;;;;;11.69;100.00;98734.41;5014085;28;20084;-77
2021/10/21 00:35:34;;;;;;;3.40;1.40;;;;;;;11.66;100.00;98737.13;5014862;28;20032;-77
2021/10/21 00:38:00;;;;;;;6.07;1.15;;;;;;;11.62;100.00;98756.53;5014833;28;20037;-77
2021/10/21 00:40:25;;;;;;;5.22;1.83;;;;;;;11.51;100.00;98762.03;5014685;28;20018;-76
2021/10/21 00:42:51;;;;;;;3.53;0.98;;;;;;;11.44;100.00;98742.84;5015694;28;20029;-77
2021/10/21 00:45:16;;;;;;;8.38;1.10;;;;;;;11.41;100.00;98752.59;5013957;28;20192;-77
2021/10/21 00:47:42;;;;;;;3.30;1.08;;;;;;;11.34;100.00;98751.84;5015433;28;20026;-77
2021/10/21 00:50:07;;;;;;;4.75;1.48;;;;;;;11.28;100.00;98742.28;5014386;28;20386;-76
2021/10/21 00:52:34;;;;;;;5.35;1.30;;;;;;;11.31;100.00;98717.66;5016721;28;20030;-77
2021/10/21 00:54:59;;;;;;;11.10;1.77;;;;;;;11.18;100.00;98703.91;5034094;28;20493;-78
2021/10/21 00:57:26;;;;;;;12.75;1.63;;;;;;;11.16;100.00;98703.06;5034333;28;20022;-78
2021/10/21 00:59:52;;;;;;;5.25;1.02;;;;;;;11.11;100.00;98703.16;5033811;28;20047;-77
2021/10/21 01:02:18;;;;;;;9.30;1.25;;;;;;;11.06;100.00;98705.00;5036051;28;20026;-78
2021/10/21 01:04:44;;;;;;;10.48;1.25;;;;;;;11.07;100.00;98722.56;5035657;28;20870;-78
2021/10/21 01:07:09;;;;;;;10.93;1.60;;;;;;;11.03;100.00;98725.25;5033319;28;20026;-78
2021/10/21 01:09:37;;;;;;;10.10;1.30;;;;;;;11.03;100.00;98726.13;5034295;28;20444;-76
2021/10/21 01:12:04;;;;;;;11.48;2.72;;;;;;;11.04;100.00;98722.63;5034589;28;20026;-76
2021/10/21 01:14:30;;;;;;;8.45;1.27;;;;;;;11.01;100.00;98722.66;5033949;28;20112;-76
2021/10/21 01:16:55;;;;;;;13.68;1.77;;;;;;;11.01;100.00;98714.75;5033954;28;20120;-77
2021/10/21 01:19:23;;;;;;;12.10;1.80;;;;;;;10.93;100.00;98708.78;5032918;28;20033;-77
2021/10/21 01:21:51;;;;;;;7.10;1.55;;;;;;;10.92;100.00;98707.03;5033278;28;20045;-75
2021/10/21 01:24:19;;;;;;;10.95;1.55;;;;;;;10.91;100.00;98715.84;5033982;28;20045;-77
2021/10/21 01:26:49;;;;;;;9.85;1.52;;;;;;;10.85;100.00;98710.69;5034184;28;20025;-76
2021/10/21 01:29:15;;;;;;;8.80;2.00;;;;;;;10.89;100.00;98701.84;5016647;28;20033;-77
2021/10/21 01:31:41;;;;;;;10.70;1.27;;;;;;;10.89;100.00;98717.63;5032718;28;20472;-75
2021/10/21 01:34:08;;;;;;;10.77;1.75;;;;;;;10.96;100.00;98711.38;5033560;28;20089;-75
2021/10/21 01:36:35;;;;;;;11.98;1.35;;;;;;;10.94;100.00;98694.75;5033542;28;20508;-76
2021/10/21 01:39:02;;;;;;;11.75;1.85;;;;;;;11.04;99.68;98705.94;5033774;28;20037;-76
2021/10/21 01:41:27;;;;;;;12.82;1.50;;;;;;;11.02;100.00;98723.53;5033782;28;20069;-75
2021/10/21 01:43:53;;;;;;;12.25;1.98;;;;;;;11.06;100.00;98704.16;5033436;28;20056;-74
2021/10/21 01:46:20;;;;;;;7.72;1.15;;;;;;;11.08;99.89;98702.34;5033293;28;20021;-75
2021/10/21 01:48:45;;;;;;;11.52;1.40;;;;;;;11.06;98.33;98689.22;5033319;28;20021;-75
2021/10/21 01:51:10;;;;;;;5.10;0.90;;;;;;;11.01;100.00;98696.34;5033337;28;20376;-75
2021/10/21 01:53:36;;;;;;;7.38;1.08;;;;;;;10.92;99.78;98696.50;5022958;28;20474;-75
2021/10/21 01:56:01;;;;;;;9.38;2.00;;;;;;;10.89;99.55;98708.00;5012653;28;20033;-75
2021/10/21 01:58:27;;;;;;;8.10;1.83;;;;;;;10.82;100.00;98701.09;5014168;28;20041;-76
2021/10/21 02:00:53;;;;;;;7.30;1.30;;;;;;;10.68;100.00;98701.34;5014474;28;20100;-76
2021/10/21 02:03:18;;;;;;;6.30;1.52;;;;;;;10.66;100.00;98711.03;5014231;28;20033;-76
2021/10/21 02:05:43;;;;;;;7.25;1.33;;;;;;;10.58;100.00;98702.41;5012783;28;20028;-74
2021/10/21 02:08:09;;;;;;;8.82;1.13;;;;;;;10.49;100.00;98697.34;5013898;28;20025;-75
2021/10/21 02:10:34;;;;;;;5.82;1.30;;;;;;;10.41;100.00;98700.94;5014096;28;20037;-76
2021/10/21 02:12:59;;;;;;;10.43;1.77;;;;;;;10.38;100.00;98697.53;5012822;28;20048;-76
2021/10/21 02:15:25;;;;;;;6.43;1.23;;;;;;;10.34;100.00;98694.03;5013762;28;20026;-75
2021/10/21 02:17:50;;;;;;;11.65;1.35;;;;;;;10.27;100.00;98692.41;5013839;28;20084;-76
2021/10/21 02:20:15;;;;;;;4.55;1.25;;;;;;;10.24;100.00;98684.56;5013332;28;20367;-75
2021/10/21 02:22:41;;;;;;;5.38;1.08;;;;;;;10.25;100.00;98684.53;5013109;28;20037;-76
2021/10/21 02:25:09;;;;;;;6.22;1.00;;;;;;;10.23;100.00;98674.97;5011784;28;20046;-76
2021/10/21 02:27:35;;;;;;;11.20;1.75;;;;;;;10.21;100.00;98674.97;5013390;28;20081;-74
2021/10/21 02:30:01;;;;;;;8.93;1.55;;;;;;;10.19;100.00;98663.63;5013318;28;20390;-76
2021/10/21 02:32:26;;;;;;;7.93;1.45;;;;;;;10.15;100.00;98666.31;5014034;28;20048;-75
2021/10/21 02:34:52;;;;;;;8.45;2.45;;;;;;;10.13;100.00;98671.59;5017427;28;20026;-76
2021/10/21 02:37:17;;;;;;;9.18;1.75;;;;;;;10.14;100.00;98665.47;5017339;28;20464;-75
2021/10/21 02:39:43;;;;;;;7.18;1.25;;;;;;;10.12;100.00;98662.88;5016972;28;20038;-76
2021/10/21 02:42:08;;;;;;;12.80;1.63;;;;;;;10.13;100.00;98663.72;5016897;28;20482;-77
2021/10/21 02:44:33;;;;;;;6.70;1.00;;;;;;;10.18;100.00;98655.78;5016866;28;20034;-77
2021/10/21 02:46:59;;;;;;;6.50;1.20;;;;;;;10.19;100.00;98654.91;5017021;28;20052;-76
2021/10/21 02:49:24;;;;;;;9.65;1.40;;;;;;;10.21;100.00;98648.69;5016762;28;20025;-76
2021/10/21 02:51:49;;;;;;;12.85;1.73;;;;;;;10.24;100.00;98650.41;5016675;28;20068;-76
2021/10/21 02:54:15;;;;;;;10.18;1.08;;;;;;;10.24;100.00;98658.28;5031480;28;20485;-76
2021/10/21 02:56:40;;;;;;;6.90;1.00;;;;;;;10.27;100.00;98653.84;5036394;28;20385;-76
2021/10/21 02:59:05;;;;;;;6.75;1.80;;;;;;;10.26;100.00;98638.13;5036347;28;20034;-76
2021/10/21 03:01:31;;;;;;;7.72;1.45;;;;;;;10.29;100.00;98643.31;5035174;28;20022;-76
2021/10/21 03:03:58;;;;;;;14.00;1.65;;;;;;;10.33;100.00;98638.88;5036421;28;20501;-76
2021/10/21 03:06:24;;;;;;;5.80;1.20;;;;;;;10.32;100.00;98645.88;5036601;28;20079;-76
2021/10/21 03:08:49;;;;;;;9.85;1.52;;;;;;;10.38;100.00;98639.69;5035274;28;20029;-76
2021/10/21 03:11:14;;;;;;;7.65;1.45;;;;;;;10.37;100.00;98637.94;5036062;28;20029;-76
2021/10/21 03:13:40;;;;;;;3.97;1.13;;;;;;;10.39;100.00;98644.91;5035956;28;20493;-77
2021/10/21 03:16:05;;;;;;;9.43;1.38;;;;;;;10.44;100.00;98635.19;5036049;28;20029;-75
2021/10/21 03:18:30;;;;;;;12.77;1.42;;;;;;;10.44;100.00;98635.19;5035020;28;20021;-76
2021/10/21 03:20:56;;;;;;;9.32;1.33;;;;;;;10.43;100.00;98630.81;5036528;28;20075;-76
2021/10/21 03:23:24;;;;;;;7.68;1.38;;;;;;;10.46;100.00;98641.28;5036516;28;20520;-76
2021/10/21 03:25:50;;;;;;;8.85;1.50;;;;;;;10.47;100.00;98634.25;5035782;28;20042;-74
2021/10/21 03:28:16;;;;;;;7.68;1.58;;;;;;;10.52;100.00;98639.44;5034915;28;20025;-75
2021/10/21 03:30:41;;;;;;;13.27;1.60;;;;;;;10.56;100.00;98638.47;5035897;28;20028;-75
2021/10/21 03:33:06;;;;;;;7.55;1.27;;;;;;;10.58;100.00;98644.56;5035002;28;20048;-75
2021/10/21 03:35:32;;;;;;;10.50;1.33;;;;;;;10.61;100.00;98644.53;5035994;28;20025;-75
2021/10/21 03:37:57;;;;;;;7.40;1.70;;;;;;;10.60;100.00;98648.03;5035964;28;20045;-75
2021/10/21 03:40:22;;;;;;;9.88;1.25;;;;;;;10.60;100.00;98642.78;5035170;28;20025;-75
2021/10/21 03:42:48;;;;;;;15.88;1.73;;;;;;;10.58;100.00;98639.28;5035970;28;20029;-75
2021/10/21 03:45:13;;;;;;;9.57;1.35;;;;;;;10.57;100.00;98653.38;5034897;28;20389;-75
2021/10/21 03:47:39;;;;;;;6.97;1.35;;;;;;;10.58;100.00;98649.81;5035553;28;20384;-76
2021/10/21 03:50:05;;;;;;;12.15;1.42;;;;;;;10.57;100.00;98654.22;5035922;28;20028;-76
2021/10/21 03:52:30;;;;;;;8.48;1.67;;;;;;;10.54;100.00;98648.13;5034406;28;20037;-76
2021/10/21 03:54:56;;;;;;;8.95;1.77;;;;;;;10.52;100.00;98657.84;5016170;28;20108;-75
2021/10/21 03:57:21;;;;;;;10.10;1.90;;;;;;;10.50;100.00;98672.75;5016096;28;20022;-76
2021/10/21 03:59:46;;;;;;;11.90;1.90;;;;;;;10.49;100.00;98681.56;5014666;28;20028;-75
2021/10/21 04:02:12;;;;;;;9.32;2.22;;;;;;;10.50;100.00;98699.06;5014404;28;20367;-74
2021/10/21 04:04:37;;;;;;;11.85;2.40;;;;;;;10.49;100.00;98703.47;5015706;28;20172;-75
2021/10/21 04:07:03;;;;;;;8.45;2.10;;;;;;;10.49;100.00;98711.34;5015558;28;20029;-75
2021/10/21 04:09:29;;;;;;;12.77;2.08;;;;;;;10.50;100.00;98738.50;5015356;28;20391;-75
2021/10/21 04:11:54;;;;;;;13.43;2.33;;;;;;;10.36;100.00;98702.78;5014324;28;20030;-76
2021/10/21 04:14:19;;;;;;;9.27;0.95;;;;;;;10.18;100.00;98697.81;5013883;28;20088;-75
2021/10/21 04:16:44;;;;;;;12.20;1.33;;;;;;;10.06;100.00;98727.78;5016089;28;20029;-75
2021/10/21 04:19:10;;;;;;;19.25;1.75;;;;;;;9.97;100.00;98762.97;5015139;28;20470;-75
2021/10/21 04:21:35;;;;;;;20.25;1.55;;;;;;;9.87;100.00;98761.34;5013988;28;20065;-76
2021/10/21 04:24:01;;;;;;;34.33;4.85;;;;;;;9.82;100.00;98799.94;5015357;28;20367;-75
2021/10/21 04:26:27;;;;;;;32.95;2.30;;;;;;;9.81;100.00;98824.47;5015434;28;20096;-76
2021/10/21 04:28:52;;;;;;;20.75;2.25;;;;;;;9.82;100.00;98841.97;5015397;28;20061;-76
2021/10/21 04:31:18;;;;;;;9.88;1.88;;;;;;;9.86;100.00;98877.81;5015747;28;20034;-76
2021/10/21 04:33:43;;;;;;;8.15;1.17;;;;;;;9.87;100.00;98895.31;5015879;28;20064;-76
2021/10/21 04:36:09;;;;;;;27.08;1.88;;;;;;;9.86;100.00;98922.47;5015192;28;20022;-76
2021/10/21 04:38:34;;;;;;;5.80;0.70;;;;;;;9.85;100.00;98944.38;5013843;28;20037;-76
2021/10/21 04:40:59;;;;;;;7.30;1.00;;;;;;;9.86;100.00;98970.66;5015235;28;20026;-76
2021/10/21 04:43:25;;;;;;;9.70;1.17;;;;;;;9.83;100.00;98996.06;5015149;28;20038;-74
2021/10/21 04:45:50;;;;;;;7.28;1.40;;;;;;;9.74;100.00;99011.03;5013233;28;20459;-75
2021/10/21 04:48:16;;;;;;;12.60;2.75;;;;;;;9.74;100.00;99031.16;5013282;28;20037;-75
2021/10/21 04:50:41;;;;;;;11.63;1.50;;;;;;;9.70;100.00;99053.97;5014779;28;20022;-75
2021/10/21 04:53:07;;;;;;;26.30;2.63;;;;;;;9.70;100.00;99077.63;5021383;28;20033;-76
2021/10/21 04:55:35;;;;;;;22.00;1.85;;;;;;;9.70;100.00;99095.13;5033861;28;20061;-76
2021/10/21 04:58:04;;;;;;;21.23;3.05;;;;;;;9.72;100.00;99119.63;5034363;28;20075;-75
2021/10/21 05:00:30;;;;;;;18.48;2.90;;;;;;;9.72;100.00;99152.00;5034194;28;20480;-75
2021/10/21 05:02:57;;;;;;;13.25;2.40;;;;;;;9.75;100.00;99161.63;5034799;28;20030;-76
2021/10/21 05:05:22;;;;;;;16.77;2.22;;;;;;;9.76;100.00;99176.50;5034758;28;20021;-75
2021/10/21 05:07:48;;;;;;;29.33;2.80;;;;;;;9.78;100.00;99196.63;5034721;28;20033;-75
2021/10/21 05:10:13;;;;;;;16.05;1.75;;;;;;;9.78;100.00;99204.50;5034056;28;20034;-76
2021/10/21 05:12:39;;;;;;;19.02;2.33;;;;;;;9.77;100.00;99213.25;5034213;28;20041;-75
2021/10/21 05:15:05;;;;;;;21.02;1.98;;;;;;;9.75;100.00;99229.91;5034043;28;20021;-75
2021/10/21 05:17:30;;;;;;;15.70;1.80;;;;;;;9.81;100.00;99244.75;5034313;28;20031;-76
2021/10/21 05:19:56;;;;;;;17.30;2.20;;;;;;;9.82;100.00;99270.16;5034077;28;20029;-76
2021/10/21 05:22:21;;;;;;;12.38;1.90;;;;;;;9.82;100.00;99284.19;5033983;28;20453;-76
2021/10/21 05:24:46;;;;;;;17.05;2.33;;;;;;;9.84;100.00;99289.44;5034139;28;20110;-76
2021/10/21 05:27:12;;;;;;;10.60;2.70;;;;;;;9.86;100.00;99296.41;5034107;28;20017;-75
2021/10/21 05:29:38;;;;;;;17.70;1.95;;;;;;;9.88;100.00;99304.28;5034012;28;20033;-76
2021/10/21 05:32:07;;;;;;;12.00;1.77;;;;;;;9.95;100.00;99312.09;5033709;28;20031;-76
2021/10/21 05:34:37;;;;;;;24.88;2.25;;;;;;;9.99;100.00;99325.25;5034077;28;20029;-75
2021/10/21 05:37:04;;;;;;;17.38;1.92;;;;;;;10.03;100.00;99334.84;5034219;28;20428;-74
2021/10/21 05:39:30;;;;;;;9.85;2.22;;;;;;;10.12;100.00;99350.59;5034126;28;20052;-74
2021/10/21 05:41:56;;;;;;;15.15;2.58;;;;;;;10.28;99.54;99377.63;5032893;28;20488;-75
2021/10/21 05:44:21;;;;;;;12.68;3.00;;;;;;;10.42;98.11;99380.22;5034567;28;20033;-75
2021/10/21 05:46:49;;;;;;;13.73;3.30;;;;;;;10.49;97.26;99396.84;5032906;28;20017;-74
2021/10/21 05:49:15;;;;;;;17.75;2.00;;;;;;;10.52;97.34;99407.34;5034056;28;20025;-74
2021/10/21 05:51:40;;;;;;;10.13;1.98;;;;;;;10.56;96.81;99424.84;5033678;28;20022;-74
2021/10/21 05:54:05;;;;;;;12.23;2.25;;;;;;;10.66;94.56;99439.66;5019206;28;20033;-73
2021/10/21 05:56:30;;;;;;;18.77;2.35;;;;;;;10.78;92.55;99442.25;5013854;28;20095;-73
2021/10/21 05:58:58;;;;;;;11.00;1.77;;;;;;;10.83;89.75;99442.19;5013817;28;20046;-74
2021/10/21 06:01:24;;;;;;;12.48;1.90;;;;;;;10.93;85.29;99461.41;5012470;28;20026;-73
2021/10/21 06:03:49;;;;;;;17.58;2.55;;;;;;;10.95;83.54;99465.78;5013912;28;20101;-75
2021/10/21 06:06:14;;;;;;;14.32;1.75;;;;;;;10.95;80.06;99464.91;5013969;28;20022;-75
2021/10/21 06:08:40;;;;;;;6.85;1.75;;;;;;;10.97;79.95;99476.28;5016492;28;20073;-74
2021/10/21 06:11:05;;;;;;;12.40;2.15;;;;;;;10.97;79.29;99484.19;5017795;28;20033;-74
2021/10/21 06:13:34;;;;;;;11.65;1.25;;;;;;;10.96;79.20;99493.00;5017948;28;20083;-74
2021/10/21 06:16:00;;;;;;;17.65;2.67;;;;;;;10.94;80.17;99494.75;5017886;28;20033;-73
2021/10/21 06:18:26;;;;;;;15.68;2.10;;;;;;;10.93;79.70;99504.41;5017718;28;20101;-74
2021/10/21 06:20:51;;;;;;;12.50;1.70;;;;;;;10.94;79.40;99508.78;5017548;28;20148;-74
2021/10/21 06:23:17;;;;;;;14.43;1.85;;;;;;;10.95;79.15;99513.16;5017403;28;20387;-73
2021/10/21 06:25:42;;;;;;;12.20;2.00;;;;;;;11.05;78.38;99534.16;5015559;28;20038;-74
2021/10/21 06:28:08;;;;;;;11.05;1.77;;;;;;;11.12;80.22;99559.56;5015942;28;20033;-72
2021/10/21 06:30:34;;;;;;;10.85;2.10;;;;;;;10.89;87.93;99607.06;5016999;28;20104;-75
2021/10/21 06:33:01;;;;;;;17.40;2.53;;;;;;;10.20;97.16;99629.16;4999974;28;20449;-76
2021/10/21 06:35:26;;;;;;;20.50;2.88;;;;;;;9.87;100.00;99637.06;5017343;28;20037;-76
2021/10/21 06:37:52;;;;;;;24.13;3.78;;;;;;;9.83;100.00;99652.84;5017345;28;20466;-76
2021/10/21 06:40:18;;;;;;;22.85;3.92;;;;;;;9.77;100.00;99659.84;5017096;28;20045;-75
2021/10/21 06:42:44;;;;;;;15.55;3.17;;;;;;;9.79;100.00;99668.63;4999206;28;20029;-75
2021/10/21 06:45:12;;;;;;;21.65;3.83;;;;;;;9.79;100.00;99676.50;5017053;28;20034;-75
2021/10/21 06:47:41;;;;;;;19.33;2.60;;;;;;;9.91;100.00;99672.97;5017035;28;20025;-74
2021/10/21 06:50:09;;;;;;;20.40;3.42;;;;;;;9.98;98.22;99680.88;5017085;28;20500;-75
2021/10/21 06:52:36;;;;;;;23.02;3.28;;;;;;;9.99;97.81;99694.00;5017959;28;20034;-76
2021/10/21 06:55:01;;;;;;;25.05;3.40;;;;;;;9.99;97.33;99706.28;5036941;28;20033;-75
2021/10/21 06:57:27;;;;;;;19.58;4.10;;;;;;;9.95;96.89;99715.91;5036848;28;20030;-76
2021/10/21 06:59:52;;;;;;;13.40;2.47;;;;;;;10.05;93.50;99706.28;5035320;28;20521;-76
2021/10/21 07:02:17;;;;;;;18.52;3.45;;;;;;;10.02;93.57;99728.19;5036335;28;20145;-75
2021/10/21 07:04:43;;;;;;;13.98;2.25;;;;;;;10.04;92.22;99741.34;5035488;28;20028;-75
2021/10/21 07:07:08;;;;;;;14.70;2.60;;;;;;;10.03;93.26;99748.34;5036907;28;20481;-73
2021/10/21 07:09:33;;;;;;;19.90;2.63;;;;;;;10.08;91.19;99754.47;5035620;28;20025;-74
2021/10/21 07:11:59;;;;;;;14.02;2.33;;;;;;;10.12;88.18;99755.38;5036869;28;20037;-75
2021/10/21 07:14:24;;;;;;;15.48;1.95;;;;;;;10.13;88.36;99768.50;5035480;28;20036;-75
2021/10/21 07:16:49;;;;;;;11.90;2.60;;;;;;;10.11;89.00;99774.63;5035114;28;20037;-75
2021/10/21 07:19:15;;;;;;;17.05;2.42;;;;;;;10.17;87.02;99784.28;5036191;28;20098;-76
2021/10/21 07:21:40;;;;;;;11.32;2.05;;;;;;;10.27;85.27;99791.31;5036529;28;20383;-75
2021/10/21 07:24:06;;;;;;;13.40;2.80;;;;;;;10.31;85.35;99806.22;5036630;28;20075;-75
2021/10/21 07:26:32;;;;;;;16.67;2.58;;;;;;;10.33;86.31;99817.59;5036515;28;20041;-75
2021/10/21 07:28:57;;;;;;;14.27;1.80;;;;;;;10.41;83.96;99826.41;5035106;28;20068;-73
2021/10/21 07:31:25;;;;;;;11.05;2.28;;;;;;;10.47;85.27;99828.13;5036440;28;20080;-75
2021/10/21 07:33:51;;;;;;;9.93;1.80;;;;;;;10.53;83.16;99832.56;5036407;28;20022;-74
2021/10/21 07:36:17;;;;;;;14.52;1.73;;;;;;;10.67;82.72;99836.03;5035589;28;20029;-74
2021/10/21 07:38:42;;;;;;;19.73;2.60;;;;;;;10.78;81.88;99836.94;5035909;28;20033;-74
2021/10/21 07:41:08;;;;;;;9.68;2.08;;;;;;;10.88;81.02;99837.81;5035806;28;20499;-73
2021/10/21 07:43:35;;;;;;;9.02;1.48;;;;;;;10.90;80.79;99858.84;5034133;28;20024;-74
2021/10/21 07:46:00;;;;;;;7.13;1.75;;;;;;;10.75;82.70;99872.88;5034307;28;20025;-74
2021/10/21 07:48:26;;;;;;;16.30;2.10;;;;;;;10.60;84.34;99876.38;5035804;28;20120;-75
2021/10/21 07:50:51;;;;;;;13.90;1.58;;;;;;;10.57;84.61;99892.19;5035347;28;20025;-74
2021/10/21 07:53:16;;;;;;;17.23;2.08;;;;;;;10.60;85.42;99892.19;5027315;28;20490;-74
2021/10/21 07:55:42;;;;;;;14.93;2.22;;;;;;;10.64;85.11;99912.34;5015389;28;20363;-75
2021/10/21 07:58:07;;;;;;;9.40;2.03;;;;;;;10.66;86.00;99926.38;5014058;28;20109;-74
2021/10/21 08:00:34;;;;;;;19.85;2.15;;;;;;;10.77;85.78;99929.91;5015525;28;20026;-74
2021/10/21 08:02:59;;;;;;;16.30;1.90;;;;;;;10.81;85.39;99938.66;5014210;28;20080;-74
2021/10/21 08:05:26;;;;;;;16.23;1.83;;;;;;;10.84;85.01;99936.06;5015683;28;20085;-74
2021/10/21 08:07:51;;;;;;;11.65;1.77;;;;;;;10.88;84.89;99960.59;5015474;28;20065;-73
2021/10/21 08:10:18;;;;;;;8.80;1.92;;;;;;;10.85;85.27;99973.75;5015325;28;20552;-73
2021/10/21 08:12:45;;;;;;;10.80;1.85;;;;;;;10.63;88.18;99977.25;5015230;28;20026;-73
2021/10/21 08:15:12;;;;;;;7.65;1.50;;;;;;;10.40;91.07;99987.69;5014920;28;20026;-72
2021/10/21 08:17:38;;;;;;;12.65;2.08;;;;;;;10.30;93.23;99999.03;5014938;28;20032;-74
2021/10/21 08:20:05;;;;;;;16.08;2.03;;;;;;;10.26;94.78;100008.66;5014763;28;20018;-73
2021/10/21 08:22:32;;;;;;;9.75;1.63;;;;;;;10.17;95.49;100007.72;5014882;28;20030;-73
2021/10/21 08:24:58;;;;;;;13.95;1.73;;;;;;;10.07;96.78;100015.56;5014459;28;20506;-73
2021/10/21 08:27:23;;;;;;;6.88;1.20;;;;;;;10.01;97.19;100020.81;5013613;28;20045;-74
2021/10/21 08:29:49;;;;;;;10.98;1.48;;;;;;;9.93;98.82;100026.00;5012975;28;20030;-73
2021/10/21 08:32:15;;;;;;;8.75;1.40;;;;;;;9.84;100.00;100020.69;5013219;28;20022;-72
2021/10/21 08:34:40;;;;;;;9.30;1.92;;;;;;;9.79;100.00;100023.31;5014520;28;20077;-72
2021/10/21 08:37:06;;;;;;;13.60;1.80;;;;;;;9.83;100.00;100028.56;5014478;28;20398;-72
2021/10/21 08:39:34;;;;;;;12.15;1.77;;;;;;;9.92;100.00;100031.25;5014393;28;20060;-73
2021/10/21 08:41:59;;;;;;;8.63;1.88;;;;;;;9.90;100.00;100043.50;5014401;28;20049;-72
2021/10/21 08:44:25;;;;;;;9.13;1.80;;;;;;;9.98;100.00;100039.16;5013191;28;20051;-72
2021/10/21 08:46:53;;;;;;;19.77;3.00;;;;;;;9.98;100.00;100040.94;5014321;28;20038;-72
2021/10/21 08:49:20;;;;;;;16.45;2.28;;;;;;;9.98;100.00;100062.81;5012922;28;20029;-73
2021/10/21 08:51:46;;;;;;;12.60;1.85;;;;;;;10.05;99.60;100040.97;5014262;28;20430;-74
2021/10/21 08:54:11;;;;;;;11.70;1.30;;;;;;;10.08;99.27;100048.00;5029594;28;20029;-74
2021/10/21 08:56:37;;;;;;;11.20;1.70;;;;;;;10.13;97.86;100055.03;5033922;28;20359;-72
2021/10/21 08:59:04;;;;;;;13.60;1.60;;;;;;;10.11;98.39;100072.53;5034476;28;20444;-72
2021/10/21 09:01:35;;;;;;;10.00;1.23;;;;;;;10.11;97.91;100079.56;5033243;28;20025;-75
2021/10/21 09:04:17;;;;;;;7.53;1.15;;;;;;;10.05;98.19;100096.19;5033428;28;20021;-75
2021/10/21 09:09:21;;;;;;;12.52;1.80;;;;;;;9.93;100.00;100114.50;5034967;28;20130;-76
2021/10/21 09:12:02;;;;;;;12.63;1.90;;;;;;;9.95;100.00;100110.13;5034514;28;20100;-74
2021/10/21 09:14:40;;;;;;;11.65;1.40;;;;;;;9.95;100.00;100115.38;5033119;28;20045;-75
2021/10/21 09:17:08;;;;;;;10.95;1.95;;;;;;;9.94;100.00;100129.38;5034244;28;20553;-75
2021/10/21 09:19:34;;;;;;;7.88;1.63;;;;;;;9.98;100.00;100119.78;5033988;28;20025;-74
2021/10/21 09:22:01;;;;;;;19.23;2.40;;;;;;;10.01;99.88;100120.69;5033788;28;20037;-73
2021/10/21 09:24:35;;;;;;;11.63;1.85;;;;;;;10.09;99.79;100119.00;5033797;28;20040;-73
2021/10/21 09:27:09;;;;;;;15.55;1.83;;;;;;;10.09;100.00;100125.97;5033015;28;20118;-74
2021/10/21 09:29:36;;;;;;;12.70;1.83;;;;;;;10.21;100.00;100138.31;5032721;28;20053;-75
2021/10/21 09:32:09;;;;;;;24.17;2.05;;;;;;;10.30;100.00;100135.75;5034104;28;20052;-74
2021/10/21 09:34:55;;;;;;;13.30;2.13;;;;;;;10.33;100.00;100162.06;5033942;28;20055;-74
2021/10/21 09:37:28;;;;;;;14.82;1.60;;;;;;;10.29;99.86;100152.41;5033683;28;20481;-75
2021/10/21 09:39:56;;;;;;;8.10;1.50;;;;;;;10.25;98.49;100163.78;5032360;28;20014;-75
2021/10/21 09:42:26;;;;;;;7.18;1.75;;;;;;;10.20;98.75;100163.75;5032807;28;20465;-75
2021/10/21 09:45:08;;;;;;;10.85;1.63;;;;;;;10.18;99.09;100170.72;5033891;28;20021;-74
2021/10/21 09:47:37;;;;;;;15.20;1.50;;;;;;;10.19;98.51;100167.25;5032439;28;20086;-75
2021/10/21 09:50:15;;;;;;;11.70;1.85;;;;;;;10.21;97.78;100177.78;5033761;28;20021;-74
2021/10/21 09:52:41;;;;;;;10.55;1.23;;;;;;;10.21;97.21;100190.91;5029465;28;20335;-74
2021/10/21 09:55:10;;;;;;;10.25;2.90;;;;;;;10.08;98.17;100209.22;4995859;28;20036;-74
2021/10/21 09:57:35;;;;;;;11.55;2.00;;;;;;;9.91;100.00;100195.94;5012255;28;20026;-75
2021/10/21 10:00:06;;;;;;;16.58;1.98;;;;;;;10.03;100.00;100192.53;5013504;28;20022;-76
2021/10/21 10:02:33;;;;;;;17.13;1.88;;;;;;;10.10;100.00;100209.22;5012243;28;20390;-75
2021/10/21 10:05:07;;;;;;;10.63;1.60;;;;;;;10.41;100.00;100201.63;5013853;28;20045;-76
2021/10/21 10:07:35;;;;;;;15.30;1.85;;;;;;;10.85;100.00;100202.75;5013806;28;20034;-75
2021/10/21 10:10:03;;;;;;;10.93;1.30;;;;;;;11.06;96.59;100200.22;5013784;28;20030;-75
2021/10/21 10:12:31;;;;;;;20.33;1.88;;;;;;;10.89;95.26;100197.53;5013827;28;20151;-76
2021/10/21 10:14:57;;;;;;;8.25;2.47;;;;;;;10.82;94.43;100198.34;5013962;28;20112;-75
2021/10/21 10:17:23;;;;;;;8.90;1.55;;;;;;;10.77;93.83;100203.59;5012617;28;20026;-75
2021/10/21 10:19:50;;;;;;;9.80;1.20;;;;;;;10.91;91.10;100208.06;5014019;28;20041;-74
2021/10/21 10:22:22;;;;;;;6.78;0.90;;;;;;;10.95;89.83;100194.03;5013735;28;20048;-73
2021/10/21 10:24:48;;;;;;;10.65;1.65;;;;;;;10.95;90.60;100205.44;5013420;28;20062;-75
2021/10/21 10:27:19;;;;;;;7.97;0.93;;;;;;;10.92;91.96;100221.22;5012437;28;20120;-75
2021/10/21 10:29:47;;;;;;;10.70;1.48;;;;;;;10.85;93.21;100268.53;5013897;28;20036;-75
2021/10/21 10:32:41;;;;;;;12.07;1.10;;;;;;;10.60;97.79;100292.94;5012474;28;20048;-75
2021/10/21 10:35:11;;;;;;;13.35;1.38;;;;;;;10.15;99.87;100307.44;5013536;28;20045;-74
2021/10/21 10:37:41;;;;;;;9.68;1.25;;;;;;;9.82;100.00;100313.22;5013246;28;20042;-73
2021/10/21 10:40:08;;;;;;;8.07;1.50;;;;;;;9.54;100.00;100328.66;5013217;28;20026;-74
2021/10/21 10:42:36;;;;;;;11.93;2.40;;;;;;;9.42;100.00;100351.25;5013208;28;20030;-74
2021/10/21 10:45:05;;;;;;;10.13;1.05;;;;;;;9.30;100.00;100356.34;5013104;28;20381;-74
2021/10/21 10:47:48;;;;;;;7.18;1.52;;;;;;;9.18;100.00;100367.56;5012975;28;20380;-74
2021/10/21 10:50:15;;;;;;;9.85;1.50;;;;;;;9.04;100.00;100380.47;5011933;28;20049;-74
2021/10/21 10:53:01;;;;;;;11.60;1.25;;;;;;;8.99;100.00;100384.78;5015003;28;20045;-75
2021/10/21 10:55:52;;;;;;;12.75;0.93;;;;;;;8.86;100.00;100390.72;5036567;28;20040;-73
2021/10/21 10:58:25;;;;;;;7.38;1.00;;;;;;;8.81;100.00;100392.38;5035956;28;20029;-74
2021/10/21 11:00:58;;;;;;;12.45;1.38;;;;;;;8.75;100.00;100403.66;5035390;28;20033;-74
2021/10/21 11:03:38;;;;;;;6.95;1.20;;;;;;;8.70;100.00;100416.66;5036687;28;20392;-74
2021/10/21 11:06:32;;;;;;;13.70;1.52;;;;;;;8.63;100.00;100425.31;5035245;28;20067;-74
2021/10/21 11:09:06;;;;;;;4.55;0.70;;;;;;;8.62;100.00;100431.38;5034388;28;20037;-75
2021/10/21 11:11:45;;;;;;;6.60;0.93;;;;;;;8.64;100.00;100440.19;5036931;28;20450;-74
2021/10/21 11:14:16;;;;;;;6.68;1.27;;;;;;;8.64;99.92;100434.94;5036655;28;20026;-74
2021/10/21 11:16:51;;;;;;;6.75;1.55;;;;;;;8.61;100.00;100429.63;5035461;28;20033;-75
2021/10/21 11:19:45;;;;;;;10.10;1.10;;;;;;;8.62;100.00;100446.25;5037307;28;20040;-75
2021/10/21 11:22:20;;;;;;;4.80;1.02;;;;;;;8.58;100.00;100450.56;5035002;28;20041;-74
2021/10/21 11:27:11;;;;;;;9.15;1.05;;;;;;;8.67;100.00;100461.22;5036314;28;20132;-74
2021/10/21 11:29:37;;;;;;;9.88;1.90;;;;;;;8.75;100.00;100467.47;5034915;28;20052;-74